sensor_id;sensor_type;location;lat;lon;timestamp;temperature;humidity
32698;DHT22;19087;51.062;3.754;2022-09-28T00:00:58;11.20;99.90
32698;DHT22;19087;51.062;3.754;2022-09-28T00:03:24;11.30;99.90
32698;DHT22;19087;51.062;3.754;2022-09-28T00:05:49;11.30;99.90
32698;DHT22;19087;51.062;3.754;2022-09-28T00:08:15;11.30;99.90
32698;DHT22;19087;51.062;3.754;2022-09-28T00:10:41;11.50;99.90
32698;DHT22;19087;51.062;3.754;2022-09-28T00:13:07;11.60;99.90
32698;DHT22;19087;51.062;3.754;2022-09-28T00:15:33;11.40;99.90
32698;DHT22;19087;51.062;3.754;2022-09-28T00:17:59;11.20;99.90
32698;DHT22;19087;51.062;3.754;2022-09-28T00:20:25;11.30;99.90
32698;DHT22;19087;51.062;3.754;2022-09-28T00:22:51;11.30;99.90
32698;DHT22;19087;51.062;3.754;2022-09-28T00:25:17;11.20;99.90
32698;DHT22;19087;51.062;3.754;2022-09-28T00:27:48;11.30;99.90
32698;DHT22;19087;51.062;3.754;2022-09-28T00:30:13;11.30;99.90
32698;DHT22;19087;51.062;3.754;2022-09-28T00:32:40;11.30;99.90
32698;DHT22;19087;51.062;3.754;2022-09-28T00:35:06;11.10;99.90
32698;DHT22;19087;51.062;3.754;2022-09-28T00:37:32;11.00;99.90
32698;DHT22;19087;51.062;3.754;2022-09-28T00:39:58;10.90;99.90
32698;DHT22;19087;51.062;3.754;2022-09-28T00:42:25;10.70;99.90
32698;DHT22;19087;51.062;3.754;2022-09-28T00:44:52;10.50;99.90
32698;DHT22;19087;51.062;3.754;2022-09-28T00:49:58;10.50;99.90
32698;DHT22;19087;51.062;3.754;2022-09-28T00:55:18;10.70;99.90
32698;DHT22;19087;51.062;3.754;2022-09-28T00:57:50;10.70;99.90
32698;DHT22;19087;51.062;3.754;2022-09-28T01:00:17;10.70;99.90
32698;DHT22;19087;51.062;3.754;2022-09-28T01:02:44;10.80;99.90
32698;DHT22;19087;51.062;3.754;2022-09-28T01:05:12;10.90;99.90
32698;DHT22;19087;51.062;3.754;2022-09-28T01:07:39;11.20;99.90
32698;DHT22;19087;51.062;3.754;2022-09-28T01:10:06;11.30;99.90
32698;DHT22;19087;51.062;3.754;2022-09-28T01:12:32;11.20;99.90
32698;DHT22;19087;51.062;3.754;2022-09-28T01:14:58;11.20;99.90
32698;DHT22;19087;51.062;3.754;2022-09-28T01:20:31;11.10;99.90
32698;DHT22;19087;51.062;3.754;2022-09-28T01:28:36;10.50;99.90
32698;DHT22;19087;51.062;3.754;2022-09-28T01:31:08;10.60;99.90
32698;DHT22;19087;51.062;3.754;2022-09-28T01:33:41;10.70;99.90
32698;DHT22;19087;51.062;3.754;2022-09-28T01:36:17;10.70;99.90
32698;DHT22;19087;51.062;3.754;2022-09-28T01:38:48;10.70;99.90
32698;DHT22;19087;51.062;3.754;2022-09-28T01:41:17;10.50;99.90
32698;DHT22;19087;51.062;3.754;2022-09-28T01:43:50;10.40;99.90
32698;DHT22;19087;51.062;3.754;2022-09-28T01:46:21;10.40;99.90
32698;DHT22;19087;51.062;3.754;2022-09-28T01:48:56;10.40;99.90
32698;DHT22;19087;51.062;3.754;2022-09-28T01:51:48;10.60;99.90
32698;DHT22;19087;51.062;3.754;2022-09-28T01:54:30;10.90;99.90
32698;DHT22;19087;51.062;3.754;2022-09-28T02:00:06;11.30;99.90
32698;DHT22;19087;51.062;3.754;2022-09-28T02:02:40;11.30;99.90
32698;DHT22;19087;51.062;3.754;2022-09-28T02:05:38;11.20;99.90
32698;DHT22;19087;51.062;3.754;2022-09-28T02:10:39;10.60;99.90
32698;DHT22;19087;51.062;3.754;2022-09-28T02:13:36;10.40;99.90
32698;DHT22;19087;51.062;3.754;2022-09-28T02:18:59;10.30;99.90
32698;DHT22;19087;51.062;3.754;2022-09-28T02:21:40;10.50;99.90
32698;DHT22;19087;51.062;3.754;2022-09-28T02:24:17;10.60;99.90
32698;DHT22;19087;51.062;3.754;2022-09-28T02:26:47;10.60;99.90
32698;DHT22;19087;51.062;3.754;2022-09-28T02:29:13;10.80;99.90
32698;DHT22;19087;51.062;3.754;2022-09-28T02:31:39;10.80;99.90
32698;DHT22;19087;51.062;3.754;2022-09-28T02:34:05;10.70;99.90
32698;DHT22;19087;51.062;3.754;2022-09-28T02:36:31;10.70;99.90
32698;DHT22;19087;51.062;3.754;2022-09-28T02:38:57;10.80;99.90
32698;DHT22;19087;51.062;3.754;2022-09-28T02:41:52;10.70;99.90
32698;DHT22;19087;51.062;3.754;2022-09-28T02:47:11;10.80;99.90
32698;DHT22;19087;51.062;3.754;2022-09-28T02:49:47;10.60;99.90
32698;DHT22;19087;51.062;3.754;2022-09-28T03:00:31;10.50;99.90
32698;DHT22;19087;51.062;3.754;2022-09-28T03:05:52;10.20;99.90
32698;DHT22;19087;51.062;3.754;2022-09-28T03:08:42;10.20;99.90
32698;DHT22;19087;51.062;3.754;2022-09-28T03:13:41;10.10;99.90
32698;DHT22;19087;51.062;3.754;2022-09-28T03:16:09;9.90;99.90
32698;DHT22;19087;51.062;3.754;2022-09-28T03:18:35;9.80;99.90
32698;DHT22;19087;51.062;3.754;2022-09-28T03:21:03;9.60;99.90
32698;DHT22;19087;51.062;3.754;2022-09-28T03:23:29;9.70;99.90
32698;DHT22;19087;51.062;3.754;2022-09-28T03:25:54;9.70;99.90
32698;DHT22;19087;51.062;3.754;2022-09-28T03:28:20;9.80;99.90
32698;DHT22;19087;51.062;3.754;2022-09-28T03:30:46;9.90;99.90
32698;DHT22;19087;51.062;3.754;2022-09-28T03:33:12;9.90;99.90
32698;DHT22;19087;51.062;3.754;2022-09-28T03:35:37;9.70;99.90
32698;DHT22;19087;51.062;3.754;2022-09-28T03:38:03;9.70;99.90
32698;DHT22;19087;51.062;3.754;2022-09-28T03:40:29;9.60;99.90
32698;DHT22;19087;51.062;3.754;2022-09-28T03:42:54;9.40;99.90
32698;DHT22;19087;51.062;3.754;2022-09-28T03:45:20;9.40;99.90
32698;DHT22;19087;51.062;3.754;2022-09-28T03:47:46;9.30;99.90
32698;DHT22;19087;51.062;3.754;2022-09-28T03:50:12;9.30;99.90
32698;DHT22;19087;51.062;3.754;2022-09-28T03:52:37;9.20;99.90
32698;DHT22;19087;51.062;3.754;2022-09-28T03:55:03;9.20;99.90
32698;DHT22;19087;51.062;3.754;2022-09-28T03:57:29;9.10;99.90
32698;DHT22;19087;51.062;3.754;2022-09-28T03:59:55;9.30;99.90
32698;DHT22;19087;51.062;3.754;2022-09-28T04:02:21;9.60;99.90
32698;DHT22;19087;51.062;3.754;2022-09-28T04:04:46;9.60;99.90
32698;DHT22;19087;51.062;3.754;2022-09-28T04:07:12;9.70;99.90
32698;DHT22;19087;51.062;3.754;2022-09-28T04:09:37;9.80;99.90
32698;DHT22;19087;51.062;3.754;2022-09-28T04:12:03;9.80;99.90
32698;DHT22;19087;51.062;3.754;2022-09-28T04:14:29;9.60;99.90
32698;DHT22;19087;51.062;3.754;2022-09-28T04:16:54;9.70;99.90
32698;DHT22;19087;51.062;3.754;2022-09-28T04:19:20;9.70;99.90
32698;DHT22;19087;51.062;3.754;2022-09-28T04:21:47;9.80;99.90
32698;DHT22;19087;51.062;3.754;2022-09-28T04:24:15;9.70;99.90
32698;DHT22;19087;51.062;3.754;2022-09-28T04:26:40;9.30;99.90
32698;DHT22;19087;51.062;3.754;2022-09-28T04:29:08;9.20;99.90
32698;DHT22;19087;51.062;3.754;2022-09-28T04:31:51;9.30;99.90
32698;DHT22;19087;51.062;3.754;2022-09-28T04:34:19;9.60;99.90
32698;DHT22;19087;51.062;3.754;2022-09-28T04:36:46;9.60;99.90
32698;DHT22;19087;51.062;3.754;2022-09-28T04:39:13;9.60;99.90
32698;DHT22;19087;51.062;3.754;2022-09-28T04:41:40;9.60;99.90
32698;DHT22;19087;51.062;3.754;2022-09-28T04:44:06;9.50;99.90
32698;DHT22;19087;51.062;3.754;2022-09-28T04:46:33;9.50;99.90
32698;DHT22;19087;51.062;3.754;2022-09-28T04:48:58;9.40;99.90
32698;DHT22;19087;51.062;3.754;2022-09-28T04:51:24;9.20;99.90
32698;DHT22;19087;51.062;3.754;2022-09-28T04:53:50;9.00;99.90
32698;DHT22;19087;51.062;3.754;2022-09-28T04:56:17;8.90;99.90
32698;DHT22;19087;51.062;3.754;2022-09-28T04:58:43;8.80;99.90
32698;DHT22;19087;51.062;3.754;2022-09-28T05:01:14;8.80;99.90
32698;DHT22;19087;51.062;3.754;2022-09-28T05:03:41;8.70;99.90
32698;DHT22;19087;51.062;3.754;2022-09-28T05:06:08;8.70;99.90
32698;DHT22;19087;51.062;3.754;2022-09-28T05:08:34;8.70;99.90
32698;DHT22;19087;51.062;3.754;2022-09-28T05:11:04;8.70;99.90
32698;DHT22;19087;51.062;3.754;2022-09-28T05:13:31;8.60;99.90
32698;DHT22;19087;51.062;3.754;2022-09-28T05:15:58;8.70;99.90
32698;DHT22;19087;51.062;3.754;2022-09-28T05:18:24;8.70;99.90
32698;DHT22;19087;51.062;3.754;2022-09-28T05:20:50;8.90;99.90
32698;DHT22;19087;51.062;3.754;2022-09-28T05:23:16;9.00;99.90
32698;DHT22;19087;51.062;3.754;2022-09-28T05:25:42;9.20;99.90
32698;DHT22;19087;51.062;3.754;2022-09-28T05:28:09;9.10;99.90
32698;DHT22;19087;51.062;3.754;2022-09-28T05:30:35;9.00;99.90
32698;DHT22;19087;51.062;3.754;2022-09-28T05:33:02;9.00;99.90
32698;DHT22;19087;51.062;3.754;2022-09-28T05:35:28;9.30;99.90
32698;DHT22;19087;51.062;3.754;2022-09-28T05:37:55;9.40;99.90
32698;DHT22;19087;51.062;3.754;2022-09-28T05:40:21;9.50;99.90
32698;DHT22;19087;51.062;3.754;2022-09-28T05:42:47;9.40;99.90
32698;DHT22;19087;51.062;3.754;2022-09-28T05:45:13;9.60;99.90
32698;DHT22;19087;51.062;3.754;2022-09-28T05:47:40;9.50;99.90
32698;DHT22;19087;51.062;3.754;2022-09-28T05:50:08;9.50;99.90
32698;DHT22;19087;51.062;3.754;2022-09-28T05:52:37;9.50;99.90
32698;DHT22;19087;51.062;3.754;2022-09-28T05:55:04;9.50;99.90
32698;DHT22;19087;51.062;3.754;2022-09-28T05:57:30;9.50;99.90
32698;DHT22;19087;51.062;3.754;2022-09-28T05:59:56;9.50;99.90
32698;DHT22;19087;51.062;3.754;2022-09-28T06:02:22;9.50;99.90
32698;DHT22;19087;51.062;3.754;2022-09-28T06:04:47;9.30;99.90
32698;DHT22;19087;51.062;3.754;2022-09-28T06:07:18;9.30;99.90
32698;DHT22;19087;51.062;3.754;2022-09-28T06:09:43;9.20;99.90
32698;DHT22;19087;51.062;3.754;2022-09-28T06:12:09;9.10;99.90
32698;DHT22;19087;51.062;3.754;2022-09-28T06:14:35;9.00;99.90
32698;DHT22;19087;51.062;3.754;2022-09-28T06:17:00;9.10;99.90
32698;DHT22;19087;51.062;3.754;2022-09-28T06:19:26;9.10;99.90
32698;DHT22;19087;51.062;3.754;2022-09-28T06:21:51;9.10;99.90
32698;DHT22;19087;51.062;3.754;2022-09-28T06:24:17;9.10;99.90
32698;DHT22;19087;51.062;3.754;2022-09-28T06:26:42;9.00;99.90
32698;DHT22;19087;51.062;3.754;2022-09-28T06:29:08;8.90;99.90
32698;DHT22;19087;51.062;3.754;2022-09-28T06:31:34;9.00;99.90
32698;DHT22;19087;51.062;3.754;2022-09-28T06:33:59;9.00;99.90
32698;DHT22;19087;51.062;3.754;2022-09-28T06:36:27;9.00;99.90
32698;DHT22;19087;51.062;3.754;2022-09-28T06:38:55;9.10;99.90
32698;DHT22;19087;51.062;3.754;2022-09-28T06:41:21;9.20;99.90
32698;DHT22;19087;51.062;3.754;2022-09-28T06:43:47;9.50;99.90
32698;DHT22;19087;51.062;3.754;2022-09-28T06:46:13;10.10;99.90
32698;DHT22;19087;51.062;3.754;2022-09-28T06:48:39;10.80;99.90
32698;DHT22;19087;51.062;3.754;2022-09-28T06:51:05;11.20;99.90
32698;DHT22;19087;51.062;3.754;2022-09-28T06:53:31;12.00;99.90
32698;DHT22;19087;51.062;3.754;2022-09-28T06:55:57;12.70;99.90
32698;DHT22;19087;51.062;3.754;2022-09-28T06:58:22;13.10;99.90
32698;DHT22;19087;51.062;3.754;2022-09-28T07:00:50;13.50;99.90
32698;DHT22;19087;51.062;3.754;2022-09-28T07:03:19;14.40;99.90
32698;DHT22;19087;51.062;3.754;2022-09-28T07:05:47;15.30;99.90
32698;DHT22;19087;51.062;3.754;2022-09-28T07:08:14;15.70;99.90
32698;DHT22;19087;51.062;3.754;2022-09-28T07:10:47;16.40;99.90
32698;DHT22;19087;51.062;3.754;2022-09-28T07:13:15;17.10;99.90
32698;DHT22;19087;51.062;3.754;2022-09-28T07:15:41;17.50;99.90
32698;DHT22;19087;51.062;3.754;2022-09-28T07:18:09;17.60;99.90
32698;DHT22;19087;51.062;3.754;2022-09-28T07:20:35;18.00;99.90
32698;DHT22;19087;51.062;3.754;2022-09-28T07:23:04;18.40;99.90
32698;DHT22;19087;51.062;3.754;2022-09-28T07:25:30;18.80;99.90
32698;DHT22;19087;51.062;3.754;2022-09-28T07:27:58;18.90;99.90
32698;DHT22;19087;51.062;3.754;2022-09-28T07:30:28;18.90;99.90
32698;DHT22;19087;51.062;3.754;2022-09-28T07:33:00;19.00;99.90
32698;DHT22;19087;51.062;3.754;2022-09-28T07:35:26;18.90;99.90
32698;DHT22;19087;51.062;3.754;2022-09-28T07:37:59;18.80;99.90
32698;DHT22;19087;51.062;3.754;2022-09-28T07:40:27;19.10;99.90
32698;DHT22;19087;51.062;3.754;2022-09-28T07:43:11;19.40;99.90
32698;DHT22;19087;51.062;3.754;2022-09-28T07:45:38;19.20;99.90
32698;DHT22;19087;51.062;3.754;2022-09-28T07:48:04;19.70;99.90
32698;DHT22;19087;51.062;3.754;2022-09-28T07:50:30;20.20;99.90
32698;DHT22;19087;51.062;3.754;2022-09-28T07:52:57;20.40;99.90
32698;DHT22;19087;51.062;3.754;2022-09-28T07:55:23;20.40;99.90
32698;DHT22;19087;51.062;3.754;2022-09-28T07:57:58;20.60;99.90
32698;DHT22;19087;51.062;3.754;2022-09-28T08:00:26;20.80;99.90
32698;DHT22;19087;51.062;3.754;2022-09-28T08:02:52;20.90;99.40
32698;DHT22;19087;51.062;3.754;2022-09-28T08:05:17;20.10;99.50
32698;DHT22;19087;51.062;3.754;2022-09-28T08:07:43;19.40;99.90
32698;DHT22;19087;51.062;3.754;2022-09-28T08:10:09;18.70;99.90
32698;DHT22;19087;51.062;3.754;2022-09-28T08:12:36;18.10;99.90
32698;DHT22;19087;51.062;3.754;2022-09-28T08:15:06;17.60;99.90
32698;DHT22;19087;51.062;3.754;2022-09-28T08:17:35;17.10;99.90
32698;DHT22;19087;51.062;3.754;2022-09-28T08:20:00;16.70;99.90
32698;DHT22;19087;51.062;3.754;2022-09-28T08:22:44;16.30;99.90
32698;DHT22;19087;51.062;3.754;2022-09-28T08:25:10;16.20;99.90
32698;DHT22;19087;51.062;3.754;2022-09-28T08:27:36;16.10;99.90
32698;DHT22;19087;51.062;3.754;2022-09-28T08:30:02;16.00;99.90
32698;DHT22;19087;51.062;3.754;2022-09-28T08:32:27;15.90;99.90
32698;DHT22;19087;51.062;3.754;2022-09-28T08:34:54;15.60;99.90
32698;DHT22;19087;51.062;3.754;2022-09-28T08:37:20;15.50;99.90
32698;DHT22;19087;51.062;3.754;2022-09-28T08:39:46;15.30;99.90
32698;DHT22;19087;51.062;3.754;2022-09-28T08:42:35;15.30;99.90
32698;DHT22;19087;51.062;3.754;2022-09-28T08:45:10;15.20;99.90
32698;DHT22;19087;51.062;3.754;2022-09-28T08:47:55;15.10;99.90
32698;DHT22;19087;51.062;3.754;2022-09-28T08:51:06;15.00;99.90
32698;DHT22;19087;51.062;3.754;2022-09-28T08:59:02;15.20;99.90
32698;DHT22;19087;51.062;3.754;2022-09-28T09:01:36;15.30;99.90
32698;DHT22;19087;51.062;3.754;2022-09-28T09:04:04;15.40;99.90
32698;DHT22;19087;51.062;3.754;2022-09-28T09:09:12;15.50;99.90
32698;DHT22;19087;51.062;3.754;2022-09-28T09:12:11;15.10;99.90
32698;DHT22;19087;51.062;3.754;2022-09-28T09:17:23;15.10;99.90
32698;DHT22;19087;51.062;3.754;2022-09-28T09:20:36;14.90;99.90
32698;DHT22;19087;51.062;3.754;2022-09-28T09:23:11;14.40;99.90
32698;DHT22;19087;51.062;3.754;2022-09-28T09:25:50;14.30;99.90
32698;DHT22;19087;51.062;3.754;2022-09-28T09:34:29;14.30;99.90
32698;DHT22;19087;51.062;3.754;2022-09-28T09:45:27;14.50;99.90
32698;DHT22;19087;51.062;3.754;2022-09-28T09:48:23;14.40;99.90
32698;DHT22;19087;51.062;3.754;2022-09-28T09:50:56;14.60;99.90
32698;DHT22;19087;51.062;3.754;2022-09-28T09:53:39;14.70;99.90
32698;DHT22;19087;51.062;3.754;2022-09-28T09:56:16;14.70;99.90
32698;DHT22;19087;51.062;3.754;2022-09-28T09:58:49;14.80;99.90
32698;DHT22;19087;51.062;3.754;2022-09-28T10:01:22;14.80;99.90
32698;DHT22;19087;51.062;3.754;2022-09-28T10:03:51;14.90;99.90
32698;DHT22;19087;51.062;3.754;2022-09-28T10:06:27;15.10;99.90
32698;DHT22;19087;51.062;3.754;2022-09-28T10:09:10;15.20;99.90
32698;DHT22;19087;51.062;3.754;2022-09-28T10:11:45;15.10;99.90
32698;DHT22;19087;51.062;3.754;2022-09-28T10:14:22;15.10;99.90
32698;DHT22;19087;51.062;3.754;2022-09-28T10:16:50;15.00;99.90
32698;DHT22;19087;51.062;3.754;2022-09-28T10:19:18;15.10;99.90
32698;DHT22;19087;51.062;3.754;2022-09-28T10:21:49;15.20;99.90
32698;DHT22;19087;51.062;3.754;2022-09-28T10:24:30;15.50;99.90
32698;DHT22;19087;51.062;3.754;2022-09-28T10:27:07;15.80;99.90
32698;DHT22;19087;51.062;3.754;2022-09-28T10:29:54;16.20;99.90
32698;DHT22;19087;51.062;3.754;2022-09-28T10:32:25;16.30;99.90
32698;DHT22;19087;51.062;3.754;2022-09-28T10:34:52;16.40;99.90
32698;DHT22;19087;51.062;3.754;2022-09-28T10:37:19;16.40;99.90
32698;DHT22;19087;51.062;3.754;2022-09-28T10:39:51;16.70;99.90
32698;DHT22;19087;51.062;3.754;2022-09-28T10:42:24;16.90;99.90
32698;DHT22;19087;51.062;3.754;2022-09-28T10:47:49;17.50;99.90
32698;DHT22;19087;51.062;3.754;2022-09-28T10:50:26;17.80;99.90
32698;DHT22;19087;51.062;3.754;2022-09-28T10:52:52;18.00;99.90
32698;DHT22;19087;51.062;3.754;2022-09-28T10:57:47;18.10;99.90
32698;DHT22;19087;51.062;3.754;2022-09-28T11:00:34;18.10;99.90
32698;DHT22;19087;51.062;3.754;2022-09-28T11:03:02;18.20;99.90
32698;DHT22;19087;51.062;3.754;2022-09-28T11:05:29;18.40;99.90
32698;DHT22;19087;51.062;3.754;2022-09-28T11:07:57;18.50;99.90
32698;DHT22;19087;51.062;3.754;2022-09-28T11:10:30;18.50;99.90
32698;DHT22;19087;51.062;3.754;2022-09-28T11:12:57;18.50;99.90
32698;DHT22;19087;51.062;3.754;2022-09-28T11:15:28;18.40;99.10
32698;DHT22;19087;51.062;3.754;2022-09-28T11:17:54;18.40;98.60
32698;DHT22;19087;51.062;3.754;2022-09-28T11:22:59;18.30;98.90
32698;DHT22;19087;51.062;3.754;2022-09-28T11:25:27;18.40;99.20
32698;DHT22;19087;51.062;3.754;2022-09-28T11:30:30;18.80;98.60
32698;DHT22;19087;51.062;3.754;2022-09-28T11:33:04;18.90;98.10
32698;DHT22;19087;51.062;3.754;2022-09-28T11:35:46;19.00;98.50
32698;DHT22;19087;51.062;3.754;2022-09-28T11:38:29;19.00;97.80
32698;DHT22;19087;51.062;3.754;2022-09-28T11:44:02;18.60;98.10
32698;DHT22;19087;51.062;3.754;2022-09-28T11:49:47;18.40;97.60
32698;DHT22;19087;51.062;3.754;2022-09-28T11:52:42;18.30;97.50
32698;DHT22;19087;51.062;3.754;2022-09-28T11:55:37;18.30;97.00
32698;DHT22;19087;51.062;3.754;2022-09-28T11:58:34;18.40;96.60
32698;DHT22;19087;51.062;3.754;2022-09-28T12:01:04;18.40;97.50
32698;DHT22;19087;51.062;3.754;2022-09-28T12:03:41;18.20;97.80
32698;DHT22;19087;51.062;3.754;2022-09-28T12:06:15;18.20;98.30
32698;DHT22;19087;51.062;3.754;2022-09-28T12:08:49;18.10;98.70
32698;DHT22;19087;51.062;3.754;2022-09-28T12:11:39;18.10;98.30
32698;DHT22;19087;51.062;3.754;2022-09-28T12:14:19;18.00;98.70
32698;DHT22;19087;51.062;3.754;2022-09-28T12:16:52;18.10;98.90
32698;DHT22;19087;51.062;3.754;2022-09-28T12:19:26;18.20;99.40
32698;DHT22;19087;51.062;3.754;2022-09-28T12:22:08;18.20;98.40
32698;DHT22;19087;51.062;3.754;2022-09-28T12:24:41;18.10;98.20
32698;DHT22;19087;51.062;3.754;2022-09-28T12:27:19;17.80;98.40
32698;DHT22;19087;51.062;3.754;2022-09-28T12:34:56;18.00;98.50
32698;DHT22;19087;51.062;3.754;2022-09-28T12:37:52;18.30;98.70
32698;DHT22;19087;51.062;3.754;2022-09-28T12:46:04;18.70;97.20
32698;DHT22;19087;51.062;3.754;2022-09-28T12:59:58;18.10;97.20
32698;DHT22;19087;51.062;3.754;2022-09-28T13:05:32;17.90;97.10
32698;DHT22;19087;51.062;3.754;2022-09-28T13:08:16;17.80;97.70
32698;DHT22;19087;51.062;3.754;2022-09-28T13:16:47;17.60;98.30
32698;DHT22;19087;51.062;3.754;2022-09-28T13:19:34;17.60;97.90
32698;DHT22;19087;51.062;3.754;2022-09-28T13:25:02;17.70;98.10
32698;DHT22;19087;51.062;3.754;2022-09-28T13:27:33;17.90;98.30
32698;DHT22;19087;51.062;3.754;2022-09-28T13:30:02;18.00;97.50
32698;DHT22;19087;51.062;3.754;2022-09-28T13:32:32;18.10;97.60
32698;DHT22;19087;51.062;3.754;2022-09-28T13:34:59;18.20;96.60
32698;DHT22;19087;51.062;3.754;2022-09-28T13:37:27;18.20;96.50
32698;DHT22;19087;51.062;3.754;2022-09-28T13:39:54;18.00;96.60
32698;DHT22;19087;51.062;3.754;2022-09-28T13:56:25;17.20;97.60
32698;DHT22;19087;51.062;3.754;2022-09-28T14:01:41;16.80;98.20
32698;DHT22;19087;51.062;3.754;2022-09-28T14:06:41;16.60;98.70
32698;DHT22;19087;51.062;3.754;2022-09-28T14:11:43;16.20;99.00
32698;DHT22;19087;51.062;3.754;2022-09-28T14:17:33;16.00;99.90
32698;DHT22;19087;51.062;3.754;2022-09-28T14:20:06;16.00;99.90
32698;DHT22;19087;51.062;3.754;2022-09-28T14:25:29;16.40;99.90
32698;DHT22;19087;51.062;3.754;2022-09-28T14:30:54;16.60;99.60
32698;DHT22;19087;51.062;3.754;2022-09-28T14:33:29;16.70;99.70
32698;DHT22;19087;51.062;3.754;2022-09-28T14:36:01;16.80;99.10
32698;DHT22;19087;51.062;3.754;2022-09-28T14:38:33;16.80;98.90
32698;DHT22;19087;51.062;3.754;2022-09-28T14:41:29;16.70;99.40
32698;DHT22;19087;51.062;3.754;2022-09-28T14:44:11;16.70;99.60
32698;DHT22;19087;51.062;3.754;2022-09-28T14:46:42;16.60;99.50
32698;DHT22;19087;51.062;3.754;2022-09-28T14:54:23;16.70;99.90
32698;DHT22;19087;51.062;3.754;2022-09-28T15:04:24;16.90;98.00
32698;DHT22;19087;51.062;3.754;2022-09-28T15:06:50;17.00;99.20
32698;DHT22;19087;51.062;3.754;2022-09-28T15:09:36;17.20;97.80
32698;DHT22;19087;51.062;3.754;2022-09-28T15:12:24;17.20;96.00
32698;DHT22;19087;51.062;3.754;2022-09-28T15:14:57;17.10;95.70
32698;DHT22;19087;51.062;3.754;2022-09-28T15:17:36;16.90;95.30
32698;DHT22;19087;51.062;3.754;2022-09-28T15:22:50;16.80;95.20
32698;DHT22;19087;51.062;3.754;2022-09-28T15:25:21;16.70;95.30
32698;DHT22;19087;51.062;3.754;2022-09-28T15:27:59;16.80;95.60
32698;DHT22;19087;51.062;3.754;2022-09-28T15:30:29;16.90;95.80
32698;DHT22;19087;51.062;3.754;2022-09-28T15:32:57;17.00;96.30
32698;DHT22;19087;51.062;3.754;2022-09-28T15:35:58;17.10;97.10
32698;DHT22;19087;51.062;3.754;2022-09-28T15:38:26;17.00;96.80
32698;DHT22;19087;51.062;3.754;2022-09-28T15:40:53;16.90;97.30
32698;DHT22;19087;51.062;3.754;2022-09-28T15:43:25;16.80;97.70
32698;DHT22;19087;51.062;3.754;2022-09-28T15:46:17;16.60;98.20
32698;DHT22;19087;51.062;3.754;2022-09-28T15:48:55;16.40;98.60
32698;DHT22;19087;51.062;3.754;2022-09-28T15:51:24;16.30;99.10
32698;DHT22;19087;51.062;3.754;2022-09-28T15:56:23;16.20;99.30
32698;DHT22;19087;51.062;3.754;2022-09-28T15:59:16;16.00;99.40
32698;DHT22;19087;51.062;3.754;2022-09-28T16:01:43;15.90;99.90
32698;DHT22;19087;51.062;3.754;2022-09-28T16:07:27;15.60;99.90
32698;DHT22;19087;51.062;3.754;2022-09-28T16:15:18;15.50;99.90
32698;DHT22;19087;51.062;3.754;2022-09-28T16:18:01;15.40;99.90
32698;DHT22;19087;51.062;3.754;2022-09-28T16:20:30;15.50;99.90
32698;DHT22;19087;51.062;3.754;2022-09-28T16:23:23;15.40;99.90
32698;DHT22;19087;51.062;3.754;2022-09-28T16:26:16;15.30;99.90
32698;DHT22;19087;51.062;3.754;2022-09-28T16:28:50;15.50;99.90
32698;DHT22;19087;51.062;3.754;2022-09-28T16:33:51;15.50;99.90
32698;DHT22;19087;51.062;3.754;2022-09-28T16:36:20;15.50;99.90
32698;DHT22;19087;51.062;3.754;2022-09-28T16:38:48;15.40;99.90
32698;DHT22;19087;51.062;3.754;2022-09-28T16:41:16;15.30;99.90
32698;DHT22;19087;51.062;3.754;2022-09-28T16:43:45;15.30;99.90
32698;DHT22;19087;51.062;3.754;2022-09-28T16:46:16;15.10;99.90
32698;DHT22;19087;51.062;3.754;2022-09-28T16:48:46;15.20;99.90
32698;DHT22;19087;51.062;3.754;2022-09-28T16:51:17;15.10;99.90
32698;DHT22;19087;51.062;3.754;2022-09-28T16:53:44;15.00;99.90
32698;DHT22;19087;51.062;3.754;2022-09-28T16:56:29;14.90;99.90
32698;DHT22;19087;51.062;3.754;2022-09-28T16:58:55;14.90;99.90
32698;DHT22;19087;51.062;3.754;2022-09-28T17:01:21;14.90;99.90
32698;DHT22;19087;51.062;3.754;2022-09-28T17:03:49;14.80;99.90
32698;DHT22;19087;51.062;3.754;2022-09-28T17:06:20;14.60;99.90
32698;DHT22;19087;51.062;3.754;2022-09-28T17:08:49;14.50;99.90
32698;DHT22;19087;51.062;3.754;2022-09-28T17:11:17;14.50;99.90
32698;DHT22;19087;51.062;3.754;2022-09-28T17:13:44;14.50;99.90
32698;DHT22;19087;51.062;3.754;2022-09-28T17:16:21;14.40;99.90
32698;DHT22;19087;51.062;3.754;2022-09-28T17:18:47;14.30;99.90
32698;DHT22;19087;51.062;3.754;2022-09-28T17:21:18;14.30;99.90
32698;DHT22;19087;51.062;3.754;2022-09-28T17:23:45;14.30;99.90
32698;DHT22;19087;51.062;3.754;2022-09-28T17:26:29;14.40;99.90
32698;DHT22;19087;51.062;3.754;2022-09-28T17:28:59;14.40;99.90
32698;DHT22;19087;51.062;3.754;2022-09-28T17:31:26;14.40;99.90
32698;DHT22;19087;51.062;3.754;2022-09-28T17:33:53;14.30;99.90
32698;DHT22;19087;51.062;3.754;2022-09-28T17:36:20;14.20;99.90
32698;DHT22;19087;51.062;3.754;2022-09-28T17:38:47;14.00;99.90
32698;DHT22;19087;51.062;3.754;2022-09-28T17:41:15;14.10;99.90
32698;DHT22;19087;51.062;3.754;2022-09-28T17:43:41;14.00;99.90
32698;DHT22;19087;51.062;3.754;2022-09-28T17:48:47;13.80;99.90
32698;DHT22;19087;51.062;3.754;2022-09-28T17:51:13;13.60;99.90
32698;DHT22;19087;51.062;3.754;2022-09-28T17:53:40;13.40;99.90
32698;DHT22;19087;51.062;3.754;2022-09-28T17:56:06;13.30;99.90
32698;DHT22;19087;51.062;3.754;2022-09-28T17:58:31;13.30;99.90
32698;DHT22;19087;51.062;3.754;2022-09-28T18:00:57;13.30;99.90
32698;DHT22;19087;51.062;3.754;2022-09-28T18:03:25;13.20;99.90
32698;DHT22;19087;51.062;3.754;2022-09-28T18:06:03;13.30;99.90
32698;DHT22;19087;51.062;3.754;2022-09-28T18:08:29;13.40;99.90
32698;DHT22;19087;51.062;3.754;2022-09-28T18:10:57;13.40;99.90
32698;DHT22;19087;51.062;3.754;2022-09-28T18:13:23;13.50;99.90
32698;DHT22;19087;51.062;3.754;2022-09-28T18:15:50;13.50;99.90
32698;DHT22;19087;51.062;3.754;2022-09-28T18:18:16;13.40;99.90
32698;DHT22;19087;51.062;3.754;2022-09-28T18:20:42;13.50;99.90
32698;DHT22;19087;51.062;3.754;2022-09-28T18:23:07;13.50;99.90
32698;DHT22;19087;51.062;3.754;2022-09-28T18:25:38;13.30;99.90
32698;DHT22;19087;51.062;3.754;2022-09-28T18:28:06;13.30;99.90
32698;DHT22;19087;51.062;3.754;2022-09-28T18:30:32;13.40;99.90
32698;DHT22;19087;51.062;3.754;2022-09-28T18:32:58;13.50;99.90
32698;DHT22;19087;51.062;3.754;2022-09-28T18:35:24;13.20;99.90
32698;DHT22;19087;51.062;3.754;2022-09-28T18:37:50;12.90;99.90
32698;DHT22;19087;51.062;3.754;2022-09-28T18:40:17;12.70;99.90
32698;DHT22;19087;51.062;3.754;2022-09-28T18:42:43;12.70;99.90
32698;DHT22;19087;51.062;3.754;2022-09-28T18:45:09;12.80;99.90
32698;DHT22;19087;51.062;3.754;2022-09-28T18:47:36;12.90;99.90
32698;DHT22;19087;51.062;3.754;2022-09-28T18:50:05;13.00;99.90
32698;DHT22;19087;51.062;3.754;2022-09-28T18:52:30;12.90;99.90
32698;DHT22;19087;51.062;3.754;2022-09-28T18:54:57;12.80;99.90